Terminal Aerodrome Forecast
Issued by NWS

Home | Current Version | Previous Version | Text Only | Print | Product List | Glossary On
Versions: 1 2 3 4 5 6 7 8 9 10 11 12 13 14 15 16 17 18 19 20 21 22 23 24 25
000
FTUS46 KLOX 280000 RRA
TAFLAX
TAF
KLAX 280000Z 2800/2906 27010KT P6SM FEW050 SCT090
     FM280400 25004KT 6SM BR FEW004 BKN250
     FM280800 VRB03KT 5SM BR SCT004 BKN250
     FM281600 04003KT P6SM BKN250
     FM282000 26008KT P6SM BKN250=

USA.gov is the U.S. government's official web portal to all federal, state and local government web resources and services.